sensor_id;sensor_type;location;lat;lon;timestamp;P1;durP1;ratioP1;P2;durP2;ratioP2
5121;SDS011;2563;52.242;7.956;2023-04-01T00:01:53;8.30;;;3.53;;
5121;SDS011;2563;52.242;7.956;2023-04-01T00:04:19;7.77;;;3.37;;
5121;SDS011;2563;52.242;7.956;2023-04-01T00:06:45;6.63;;;3.20;;
5121;SDS011;2563;52.242;7.956;2023-04-01T00:09:12;7.10;;;2.77;;
5121;SDS011;2563;52.242;7.956;2023-04-01T00:11:38;5.30;;;2.57;;
5121;SDS011;2563;52.242;7.956;2023-04-01T00:14:03;7.73;;;2.90;;
5121;SDS011;2563;52.242;7.956;2023-04-01T00:16:29;7.30;;;2.90;;
5121;SDS011;2563;52.242;7.956;2023-04-01T00:18:55;6.57;;;2.90;;
5121;SDS011;2563;52.242;7.956;2023-04-01T00:21:20;9.47;;;2.80;;
5121;SDS011;2563;52.242;7.956;2023-04-01T00:23:47;11.47;;;3.10;;
5121;SDS011;2563;52.242;7.956;2023-04-01T00:26:13;9.37;;;3.20;;
5121;SDS011;2563;52.242;7.956;2023-04-01T00:28:39;6.60;;;3.13;;
5121;SDS011;2563;52.242;7.956;2023-04-01T00:31:06;10.17;;;3.57;;
5121;SDS011;2563;52.242;7.956;2023-04-01T00:33:32;6.73;;;3.37;;
5121;SDS011;2563;52.242;7.956;2023-04-01T00:36:05;8.27;;;3.43;;
5121;SDS011;2563;52.242;7.956;2023-04-01T00:38:31;7.73;;;3.43;;
5121;SDS011;2563;52.242;7.956;2023-04-01T00:40:57;7.63;;;3.23;;
5121;SDS011;2563;52.242;7.956;2023-04-01T00:43:23;6.03;;;3.30;;
5121;SDS011;2563;52.242;7.956;2023-04-01T00:45:49;7.27;;;3.97;;
5121;SDS011;2563;52.242;7.956;2023-04-01T00:48:16;7.30;;;4.10;;
5121;SDS011;2563;52.242;7.956;2023-04-01T00:50:48;6.87;;;3.03;;
5121;SDS011;2563;52.242;7.956;2023-04-01T00:53:17;6.50;;;3.20;;
5121;SDS011;2563;52.242;7.956;2023-04-01T00:55:48;7.67;;;3.20;;
5121;SDS011;2563;52.242;7.956;2023-04-01T00:58:19;7.60;;;3.13;;
5121;SDS011;2563;52.242;7.956;2023-04-01T01:00:48;8.13;;;3.60;;
5121;SDS011;2563;52.242;7.956;2023-04-01T01:03:15;5.10;;;2.77;;
5121;SDS011;2563;52.242;7.956;2023-04-01T01:11:19;8.53;;;3.80;;
5121;SDS011;2563;52.242;7.956;2023-04-01T01:13:58;8.60;;;3.57;;
5121;SDS011;2563;52.242;7.956;2023-04-01T01:16:44;9.43;;;3.43;;
5121;SDS011;2563;52.242;7.956;2023-04-01T01:22:11;10.10;;;3.90;;
5121;SDS011;2563;52.242;7.956;2023-04-01T01:27:21;7.83;;;3.97;;
5121;SDS011;2563;52.242;7.956;2023-04-01T01:32:30;8.27;;;3.50;;
5121;SDS011;2563;52.242;7.956;2023-04-01T01:38:01;8.23;;;3.83;;
5121;SDS011;2563;52.242;7.956;2023-04-01T01:40:30;6.70;;;3.70;;
5121;SDS011;2563;52.242;7.956;2023-04-01T01:42:59;7.37;;;3.67;;
5121;SDS011;2563;52.242;7.956;2023-04-01T01:45:30;9.03;;;3.80;;
5121;SDS011;2563;52.242;7.956;2023-04-01T01:47:58;8.40;;;3.50;;
5121;SDS011;2563;52.242;7.956;2023-04-01T01:50:25;6.10;;;2.60;;
5121;SDS011;2563;52.242;7.956;2023-04-01T01:52:59;9.03;;;3.30;;
5121;SDS011;2563;52.242;7.956;2023-04-01T01:55:28;6.70;;;3.30;;
5121;SDS011;2563;52.242;7.956;2023-04-01T02:01:01;7.40;;;2.90;;
5121;SDS011;2563;52.242;7.956;2023-04-01T02:03:30;6.20;;;3.20;;
5121;SDS011;2563;52.242;7.956;2023-04-01T02:05:59;7.40;;;2.60;;
5121;SDS011;2563;52.242;7.956;2023-04-01T02:08:44;9.93;;;3.20;;
5121;SDS011;2563;52.242;7.956;2023-04-01T02:11:15;6.70;;;3.20;;
5121;SDS011;2563;52.242;7.956;2023-04-01T02:13:50;5.60;;;2.50;;
5121;SDS011;2563;52.242;7.956;2023-04-01T02:16:27;6.20;;;3.07;;
5121;SDS011;2563;52.242;7.956;2023-04-01T02:18:57;6.03;;;2.80;;
5121;SDS011;2563;52.242;7.956;2023-04-01T02:21:24;5.50;;;2.40;;
5121;SDS011;2563;52.242;7.956;2023-04-01T02:23:54;7.00;;;2.80;;
5121;SDS011;2563;52.242;7.956;2023-04-01T02:26:22;5.17;;;2.30;;
5121;SDS011;2563;52.242;7.956;2023-04-01T02:28:50;5.07;;;2.40;;
5121;SDS011;2563;52.242;7.956;2023-04-01T02:31:17;4.53;;;2.37;;
5121;SDS011;2563;52.242;7.956;2023-04-01T02:33:43;5.60;;;2.40;;
5121;SDS011;2563;52.242;7.956;2023-04-01T02:36:12;5.10;;;2.60;;
5121;SDS011;2563;52.242;7.956;2023-04-01T02:38:39;7.93;;;2.90;;
5121;SDS011;2563;52.242;7.956;2023-04-01T02:41:05;6.50;;;2.93;;
5121;SDS011;2563;52.242;7.956;2023-04-01T02:43:31;5.67;;;2.60;;
5121;SDS011;2563;52.242;7.956;2023-04-01T02:45:57;5.67;;;2.87;;
5121;SDS011;2563;52.242;7.956;2023-04-01T02:48:22;5.40;;;2.40;;
5121;SDS011;2563;52.242;7.956;2023-04-01T02:50:48;6.17;;;3.07;;
5121;SDS011;2563;52.242;7.956;2023-04-01T02:53:13;11.87;;;2.90;;
5121;SDS011;2563;52.242;7.956;2023-04-01T02:55:39;6.17;;;2.70;;
5121;SDS011;2563;52.242;7.956;2023-04-01T02:58:05;6.27;;;2.97;;
5121;SDS011;2563;52.242;7.956;2023-04-01T03:00:30;6.43;;;2.80;;
5121;SDS011;2563;52.242;7.956;2023-04-01T03:02:56;5.13;;;2.33;;
5121;SDS011;2563;52.242;7.956;2023-04-01T03:05:24;5.90;;;3.07;;
5121;SDS011;2563;52.242;7.956;2023-04-01T03:07:50;6.67;;;3.10;;
5121;SDS011;2563;52.242;7.956;2023-04-01T03:10:15;5.20;;;2.53;;
5121;SDS011;2563;52.242;7.956;2023-04-01T03:12:41;6.93;;;2.33;;
5121;SDS011;2563;52.242;7.956;2023-04-01T03:15:06;5.27;;;2.40;;
5121;SDS011;2563;52.242;7.956;2023-04-01T03:17:34;5.50;;;2.53;;
5121;SDS011;2563;52.242;7.956;2023-04-01T03:20:00;7.13;;;3.30;;
5121;SDS011;2563;52.242;7.956;2023-04-01T03:22:25;7.50;;;3.03;;
5121;SDS011;2563;52.242;7.956;2023-04-01T03:24:51;6.60;;;2.83;;
5121;SDS011;2563;52.242;7.956;2023-04-01T03:27:16;5.80;;;2.63;;
5121;SDS011;2563;52.242;7.956;2023-04-01T03:29:41;6.43;;;2.50;;
5121;SDS011;2563;52.242;7.956;2023-04-01T03:32:07;6.20;;;2.80;;
5121;SDS011;2563;52.242;7.956;2023-04-01T03:34:32;6.00;;;2.70;;
5121;SDS011;2563;52.242;7.956;2023-04-01T03:36:57;4.90;;;2.43;;
5121;SDS011;2563;52.242;7.956;2023-04-01T03:39:23;5.13;;;2.53;;
5121;SDS011;2563;52.242;7.956;2023-04-01T03:41:49;5.10;;;2.03;;
5121;SDS011;2563;52.242;7.956;2023-04-01T03:44:14;6.43;;;2.80;;
5121;SDS011;2563;52.242;7.956;2023-04-01T03:46:40;5.03;;;2.37;;
5121;SDS011;2563;52.242;7.956;2023-04-01T03:49:09;5.00;;;2.30;;
5121;SDS011;2563;52.242;7.956;2023-04-01T03:51:38;4.80;;;2.00;;
5121;SDS011;2563;52.242;7.956;2023-04-01T03:54:04;5.90;;;2.23;;
5121;SDS011;2563;52.242;7.956;2023-04-01T03:56:30;4.63;;;1.80;;
5121;SDS011;2563;52.242;7.956;2023-04-01T03:58:56;3.70;;;1.53;;
5121;SDS011;2563;52.242;7.956;2023-04-01T04:01:22;4.10;;;1.83;;
5121;SDS011;2563;52.242;7.956;2023-04-01T04:03:48;3.97;;;1.70;;
5121;SDS011;2563;52.242;7.956;2023-04-01T04:06:15;4.50;;;1.60;;
5121;SDS011;2563;52.242;7.956;2023-04-01T04:08:42;5.10;;;1.73;;
5121;SDS011;2563;52.242;7.956;2023-04-01T04:11:09;4.03;;;1.70;;
5121;SDS011;2563;52.242;7.956;2023-04-01T04:13:35;3.50;;;1.50;;
5121;SDS011;2563;52.242;7.956;2023-04-01T04:16:01;8.93;;;2.10;;
5121;SDS011;2563;52.242;7.956;2023-04-01T04:18:27;3.67;;;1.50;;
5121;SDS011;2563;52.242;7.956;2023-04-01T04:20:52;4.10;;;1.60;;
5121;SDS011;2563;52.242;7.956;2023-04-01T04:23:18;4.10;;;1.30;;
5121;SDS011;2563;52.242;7.956;2023-04-01T04:25:53;4.10;;;1.23;;
5121;SDS011;2563;52.242;7.956;2023-04-01T04:28:20;4.00;;;1.70;;
5121;SDS011;2563;52.242;7.956;2023-04-01T04:30:45;3.50;;;1.43;;
5121;SDS011;2563;52.242;7.956;2023-04-01T04:33:10;3.80;;;1.70;;
5121;SDS011;2563;52.242;7.956;2023-04-01T04:35:36;4.27;;;1.67;;
5121;SDS011;2563;52.242;7.956;2023-04-01T04:38:01;3.40;;;1.37;;
5121;SDS011;2563;52.242;7.956;2023-04-01T04:40:26;3.80;;;1.70;;
5121;SDS011;2563;52.242;7.956;2023-04-01T04:42:52;5.17;;;1.67;;
5121;SDS011;2563;52.242;7.956;2023-04-01T04:45:17;4.33;;;1.80;;
5121;SDS011;2563;52.242;7.956;2023-04-01T04:47:42;4.10;;;1.77;;
5121;SDS011;2563;52.242;7.956;2023-04-01T04:50:08;3.60;;;1.60;;
5121;SDS011;2563;52.242;7.956;2023-04-01T04:52:33;6.30;;;1.70;;
5121;SDS011;2563;52.242;7.956;2023-04-01T04:54:59;5.10;;;1.80;;
5121;SDS011;2563;52.242;7.956;2023-04-01T04:57:24;4.60;;;1.80;;
5121;SDS011;2563;52.242;7.956;2023-04-01T04:59:50;4.03;;;1.50;;
5121;SDS011;2563;52.242;7.956;2023-04-01T05:02:15;3.27;;;1.23;;
5121;SDS011;2563;52.242;7.956;2023-04-01T05:04:40;3.20;;;1.17;;
5121;SDS011;2563;52.242;7.956;2023-04-01T05:07:06;5.10;;;1.60;;
5121;SDS011;2563;52.242;7.956;2023-04-01T05:09:31;4.23;;;1.30;;
5121;SDS011;2563;52.242;7.956;2023-04-01T05:11:57;3.20;;;1.20;;
5121;SDS011;2563;52.242;7.956;2023-04-01T05:14:22;4.03;;;1.60;;
5121;SDS011;2563;52.242;7.956;2023-04-01T05:16:48;3.83;;;1.37;;
5121;SDS011;2563;52.242;7.956;2023-04-01T05:19:14;3.47;;;1.33;;
5121;SDS011;2563;52.242;7.956;2023-04-01T05:21:39;3.40;;;1.40;;
5121;SDS011;2563;52.242;7.956;2023-04-01T05:24:07;3.60;;;1.70;;
5121;SDS011;2563;52.242;7.956;2023-04-01T05:26:33;10.53;;;1.73;;
5121;SDS011;2563;52.242;7.956;2023-04-01T05:28:59;3.77;;;1.53;;
5121;SDS011;2563;52.242;7.956;2023-04-01T05:31:24;4.67;;;2.00;;
5121;SDS011;2563;52.242;7.956;2023-04-01T05:33:50;5.10;;;1.60;;
5121;SDS011;2563;52.242;7.956;2023-04-01T05:36:16;4.40;;;2.00;;
5121;SDS011;2563;52.242;7.956;2023-04-01T05:38:41;3.87;;;1.70;;
5121;SDS011;2563;52.242;7.956;2023-04-01T05:41:08;5.57;;;2.53;;
5121;SDS011;2563;52.242;7.956;2023-04-01T05:43:35;6.50;;;2.60;;
5121;SDS011;2563;52.242;7.956;2023-04-01T05:46:01;5.37;;;2.57;;
5121;SDS011;2563;52.242;7.956;2023-04-01T05:48:27;5.43;;;2.50;;
5121;SDS011;2563;52.242;7.956;2023-04-01T05:50:52;6.07;;;2.90;;
5121;SDS011;2563;52.242;7.956;2023-04-01T05:53:17;5.70;;;2.90;;
5121;SDS011;2563;52.242;7.956;2023-04-01T05:55:43;5.83;;;3.10;;
5121;SDS011;2563;52.242;7.956;2023-04-01T05:58:08;9.93;;;3.20;;
5121;SDS011;2563;52.242;7.956;2023-04-01T06:00:33;6.27;;;3.33;;
5121;SDS011;2563;52.242;7.956;2023-04-01T06:02:59;7.20;;;3.30;;
5121;SDS011;2563;52.242;7.956;2023-04-01T06:05:27;7.33;;;3.53;;
5121;SDS011;2563;52.242;7.956;2023-04-01T06:08:00;7.43;;;3.87;;
5121;SDS011;2563;52.242;7.956;2023-04-01T06:10:58;6.67;;;3.10;;
5121;SDS011;2563;52.242;7.956;2023-04-01T06:18:59;5.47;;;2.63;;
5121;SDS011;2563;52.242;7.956;2023-04-01T06:29:50;6.33;;;3.30;;
5121;SDS011;2563;52.242;7.956;2023-04-01T06:35:27;5.77;;;2.90;;
5121;SDS011;2563;52.242;7.956;2023-04-01T06:48:49;4.90;;;2.50;;
5121;SDS011;2563;52.242;7.956;2023-04-01T06:54:09;5.27;;;2.57;;
5121;SDS011;2563;52.242;7.956;2023-04-01T06:56:36;9.33;;;2.53;;
5121;SDS011;2563;52.242;7.956;2023-04-01T06:59:07;5.37;;;2.70;;
5121;SDS011;2563;52.242;7.956;2023-04-01T07:04:23;6.50;;;2.97;;
5121;SDS011;2563;52.242;7.956;2023-04-01T07:06:54;6.70;;;3.20;;
5121;SDS011;2563;52.242;7.956;2023-04-01T07:09:24;6.20;;;2.90;;
5121;SDS011;2563;52.242;7.956;2023-04-01T07:11:56;5.70;;;2.90;;
5121;SDS011;2563;52.242;7.956;2023-04-01T07:24:52;6.37;;;2.80;;
5121;SDS011;2563;52.242;7.956;2023-04-01T07:27:19;8.83;;;2.83;;
5121;SDS011;2563;52.242;7.956;2023-04-01T07:29:44;5.80;;;2.80;;
5121;SDS011;2563;52.242;7.956;2023-04-01T07:32:17;9.40;;;2.87;;
5121;SDS011;2563;52.242;7.956;2023-04-01T07:34:48;5.03;;;2.23;;
5121;SDS011;2563;52.242;7.956;2023-04-01T07:51:46;4.90;;;2.03;;
5121;SDS011;2563;52.242;7.956;2023-04-01T08:04:57;7.90;;;2.00;;
5121;SDS011;2563;52.242;7.956;2023-04-01T08:10:19;4.30;;;1.73;;
5121;SDS011;2563;52.242;7.956;2023-04-01T08:15:51;5.13;;;2.00;;
5121;SDS011;2563;52.242;7.956;2023-04-01T08:18:31;3.70;;;1.50;;
5121;SDS011;2563;52.242;7.956;2023-04-01T08:26:47;3.27;;;1.27;;
5121;SDS011;2563;52.242;7.956;2023-04-01T08:29:17;4.20;;;1.70;;
5121;SDS011;2563;52.242;7.956;2023-04-01T08:34:15;4.97;;;1.50;;
5121;SDS011;2563;52.242;7.956;2023-04-01T08:36:50;3.57;;;1.63;;
5121;SDS011;2563;52.242;7.956;2023-04-01T08:47:42;5.60;;;3.00;;
5121;SDS011;2563;52.242;7.956;2023-04-01T08:50:26;5.23;;;2.70;;
5121;SDS011;2563;52.242;7.956;2023-04-01T08:53:11;7.10;;;3.30;;
5121;SDS011;2563;52.242;7.956;2023-04-01T08:56:14;6.27;;;2.97;;
5121;SDS011;2563;52.242;7.956;2023-04-01T10:44:55;8.87;;;3.50;;
5121;SDS011;2563;52.242;7.956;2023-04-01T10:53:11;6.13;;;2.90;;
5121;SDS011;2563;52.242;7.956;2023-04-01T11:12:11;5.10;;;2.67;;
5121;SDS011;2563;52.242;7.956;2023-04-01T11:28:17;4.40;;;2.00;;
5121;SDS011;2563;52.242;7.956;2023-04-01T11:36:50;4.57;;;1.93;;
5121;SDS011;2563;52.242;7.956;2023-04-01T11:42:34;3.67;;;1.77;;
5121;SDS011;2563;52.242;7.956;2023-04-01T11:45:13;5.40;;;1.97;;
5121;SDS011;2563;52.242;7.956;2023-04-01T11:59:03;4.27;;;1.90;;
5121;SDS011;2563;52.242;7.956;2023-04-01T12:01:54;3.90;;;1.83;;
5121;SDS011;2563;52.242;7.956;2023-04-01T12:13:16;4.43;;;2.10;;
5121;SDS011;2563;52.242;7.956;2023-04-01T12:19:08;5.00;;;2.40;;
5121;SDS011;2563;52.242;7.956;2023-04-01T12:36:01;6.23;;;3.17;;
5121;SDS011;2563;52.242;7.956;2023-04-01T12:38:57;6.33;;;3.37;;
5121;SDS011;2563;52.242;7.956;2023-04-01T12:41:39;5.43;;;2.93;;
5121;SDS011;2563;52.242;7.956;2023-04-01T12:51:47;7.63;;;4.90;;
5121;SDS011;2563;52.242;7.956;2023-04-01T13:09:49;6.00;;;2.90;;
5121;SDS011;2563;52.242;7.956;2023-04-01T13:17:53;4.80;;;2.80;;
5121;SDS011;2563;52.242;7.956;2023-04-01T13:28:10;4.97;;;1.77;;
5121;SDS011;2563;52.242;7.956;2023-04-01T13:30:47;4.93;;;2.47;;
5121;SDS011;2563;52.242;7.956;2023-04-01T13:44:47;5.63;;;1.90;;
5121;SDS011;2563;52.242;7.956;2023-04-01T14:10:39;3.93;;;1.40;;
5121;SDS011;2563;52.242;7.956;2023-04-01T14:13:17;3.13;;;1.30;;
5121;SDS011;2563;52.242;7.956;2023-04-01T14:16:10;5.83;;;2.70;;
5121;SDS011;2563;52.242;7.956;2023-04-01T14:27:36;10.80;;;4.70;;
5121;SDS011;2563;52.242;7.956;2023-04-01T14:33:23;6.30;;;2.10;;
5121;SDS011;2563;52.242;7.956;2023-04-01T14:49:42;4.57;;;1.73;;
5121;SDS011;2563;52.242;7.956;2023-04-01T14:52:32;5.90;;;2.47;;
5121;SDS011;2563;52.242;7.956;2023-04-01T14:55:01;5.90;;;2.30;;
5121;SDS011;2563;52.242;7.956;2023-04-01T14:57:58;4.40;;;1.77;;
5121;SDS011;2563;52.242;7.956;2023-04-01T15:00:37;5.30;;;2.03;;
5121;SDS011;2563;52.242;7.956;2023-04-01T15:14:30;3.20;;;1.23;;
5121;SDS011;2563;52.242;7.956;2023-04-01T15:28:50;5.10;;;1.67;;
5121;SDS011;2563;52.242;7.956;2023-04-01T15:31:31;3.73;;;1.73;;
5121;SDS011;2563;52.242;7.956;2023-04-01T15:34:42;5.17;;;2.57;;
5121;SDS011;2563;52.242;7.956;2023-04-01T15:49:51;3.50;;;1.20;;
5121;SDS011;2563;52.242;7.956;2023-04-01T15:52:22;3.53;;;1.00;;
5121;SDS011;2563;52.242;7.956;2023-04-01T15:54:55;3.70;;;0.70;;
5121;SDS011;2563;52.242;7.956;2023-04-01T15:57:29;3.30;;;0.90;;
5121;SDS011;2563;52.242;7.956;2023-04-01T16:05:10;3.27;;;1.37;;
5121;SDS011;2563;52.242;7.956;2023-04-01T16:10:23;3.90;;;1.37;;
5121;SDS011;2563;52.242;7.956;2023-04-01T16:23:50;3.20;;;1.30;;
5121;SDS011;2563;52.242;7.956;2023-04-01T16:26:28;3.30;;;1.20;;
5121;SDS011;2563;52.242;7.956;2023-04-01T16:31:46;3.30;;;1.07;;
5121;SDS011;2563;52.242;7.956;2023-04-01T16:34:24;5.00;;;1.73;;
5121;SDS011;2563;52.242;7.956;2023-04-01T16:37:19;4.07;;;1.47;;
5121;SDS011;2563;52.242;7.956;2023-04-01T16:42:43;4.27;;;1.53;;
5121;SDS011;2563;52.242;7.956;2023-04-01T16:45:26;4.10;;;1.63;;
5121;SDS011;2563;52.242;7.956;2023-04-01T16:51:16;3.07;;;0.90;;
5121;SDS011;2563;52.242;7.956;2023-04-01T16:53:48;3.97;;;1.60;;
5121;SDS011;2563;52.242;7.956;2023-04-01T16:56:21;2.90;;;0.90;;
5121;SDS011;2563;52.242;7.956;2023-04-01T17:01:32;3.73;;;1.57;;
5121;SDS011;2563;52.242;7.956;2023-04-01T17:04:13;3.60;;;1.40;;
5121;SDS011;2563;52.242;7.956;2023-04-01T17:10:01;17.70;;;8.50;;
5121;SDS011;2563;52.242;7.956;2023-04-01T17:12:53;6.50;;;2.83;;
5121;SDS011;2563;52.242;7.956;2023-04-01T17:18:13;3.67;;;1.57;;
5121;SDS011;2563;52.242;7.956;2023-04-01T17:23:44;3.53;;;1.30;;
5121;SDS011;2563;52.242;7.956;2023-04-01T17:28:57;3.40;;;1.10;;
5121;SDS011;2563;52.242;7.956;2023-04-01T17:40:19;11.03;;;5.50;;
5121;SDS011;2563;52.242;7.956;2023-04-01T17:42:56;33.47;;;13.77;;
5121;SDS011;2563;52.242;7.956;2023-04-01T17:46:09;24.50;;;10.57;;
5121;SDS011;2563;52.242;7.956;2023-04-01T17:54:16;29.20;;;12.77;;
5121;SDS011;2563;52.242;7.956;2023-04-01T17:56:59;7.03;;;3.90;;
5121;SDS011;2563;52.242;7.956;2023-04-01T17:59:39;5.03;;;2.03;;
5121;SDS011;2563;52.242;7.956;2023-04-01T18:02:20;7.40;;;2.50;;
5121;SDS011;2563;52.242;7.956;2023-04-01T18:10:41;11.90;;;5.40;;
5121;SDS011;2563;52.242;7.956;2023-04-01T18:21:47;7.53;;;4.13;;
5121;SDS011;2563;52.242;7.956;2023-04-01T18:27:04;15.30;;;8.00;;
5121;SDS011;2563;52.242;7.956;2023-04-01T18:35:45;6.03;;;2.40;;
5121;SDS011;2563;52.242;7.956;2023-04-01T18:38:16;9.40;;;2.67;;
5121;SDS011;2563;52.242;7.956;2023-04-01T18:41:07;6.47;;;2.50;;
5121;SDS011;2563;52.242;7.956;2023-04-01T18:43:39;4.33;;;1.70;;
5121;SDS011;2563;52.242;7.956;2023-04-01T18:49:13;5.13;;;2.20;;
5121;SDS011;2563;52.242;7.956;2023-04-01T18:57:08;3.87;;;1.40;;
5121;SDS011;2563;52.242;7.956;2023-04-01T18:59:57;4.20;;;1.93;;
5121;SDS011;2563;52.242;7.956;2023-04-01T19:02:37;3.73;;;1.10;;
5121;SDS011;2563;52.242;7.956;2023-04-01T19:25:51;3.40;;;1.30;;
5121;SDS011;2563;52.242;7.956;2023-04-01T19:28:22;5.47;;;1.90;;
5121;SDS011;2563;52.242;7.956;2023-04-01T19:53:14;3.80;;;1.60;;
5121;SDS011;2563;52.242;7.956;2023-04-01T19:59:05;5.27;;;1.37;;
5121;SDS011;2563;52.242;7.956;2023-04-01T20:02:03;3.30;;;1.17;;
5121;SDS011;2563;52.242;7.956;2023-04-01T20:04:44;4.50;;;1.33;;
5121;SDS011;2563;52.242;7.956;2023-04-01T20:07:19;3.43;;;1.30;;
5121;SDS011;2563;52.242;7.956;2023-04-01T20:15:46;3.97;;;1.40;;
5121;SDS011;2563;52.242;7.956;2023-04-01T20:18:23;3.40;;;1.10;;
5121;SDS011;2563;52.242;7.956;2023-04-01T20:21:03;3.70;;;1.13;;
5121;SDS011;2563;52.242;7.956;2023-04-01T20:26:37;3.40;;;1.20;;
5121;SDS011;2563;52.242;7.956;2023-04-01T20:42:54;7.03;;;1.30;;
5121;SDS011;2563;52.242;7.956;2023-04-01T20:45:33;2.80;;;0.90;;
5121;SDS011;2563;52.242;7.956;2023-04-01T20:59:28;3.20;;;0.93;;
5121;SDS011;2563;52.242;7.956;2023-04-01T21:10:44;3.27;;;1.00;;
5121;SDS011;2563;52.242;7.956;2023-04-01T21:16:22;3.43;;;1.10;;
5121;SDS011;2563;52.242;7.956;2023-04-01T21:19:03;3.40;;;0.97;;
5121;SDS011;2563;52.242;7.956;2023-04-01T21:21:46;3.53;;;1.30;;
5121;SDS011;2563;52.242;7.956;2023-04-01T21:33:21;4.67;;;1.70;;
5121;SDS011;2563;52.242;7.956;2023-04-01T21:47:06;5.10;;;1.77;;
5121;SDS011;2563;52.242;7.956;2023-04-01T22:00:48;3.60;;;1.00;;
5121;SDS011;2563;52.242;7.956;2023-04-01T22:08:36;5.33;;;1.60;;
5121;SDS011;2563;52.242;7.956;2023-04-01T22:11:27;4.63;;;1.90;;
5121;SDS011;2563;52.242;7.956;2023-04-01T22:14:18;4.63;;;1.70;;
5121;SDS011;2563;52.242;7.956;2023-04-01T22:19:42;4.27;;;1.57;;
5121;SDS011;2563;52.242;7.956;2023-04-01T22:25:42;4.57;;;1.83;;
5121;SDS011;2563;52.242;7.956;2023-04-01T22:31:02;4.23;;;1.60;;
5121;SDS011;2563;52.242;7.956;2023-04-01T22:33:47;5.07;;;1.90;;
5121;SDS011;2563;52.242;7.956;2023-04-01T22:47:40;4.03;;;1.60;;
5121;SDS011;2563;52.242;7.956;2023-04-01T22:50:25;5.27;;;1.70;;
5121;SDS011;2563;52.242;7.956;2023-04-01T22:55:59;5.20;;;2.00;;
5121;SDS011;2563;52.242;7.956;2023-04-01T22:58:35;6.03;;;2.10;;
5121;SDS011;2563;52.242;7.956;2023-04-01T23:01:10;5.50;;;2.13;;
5121;SDS011;2563;52.242;7.956;2023-04-01T23:03:41;6.47;;;2.50;;
5121;SDS011;2563;52.242;7.956;2023-04-01T23:06:30;7.97;;;2.40;;
5121;SDS011;2563;52.242;7.956;2023-04-01T23:09:05;4.23;;;2.10;;
5121;SDS011;2563;52.242;7.956;2023-04-01T23:19:23;6.30;;;2.20;;
5121;SDS011;2563;52.242;7.956;2023-04-01T23:21:55;5.97;;;2.37;;
5121;SDS011;2563;52.242;7.956;2023-04-01T23:24:36;4.30;;;1.60;;
5121;SDS011;2563;52.242;7.956;2023-04-01T23:27:20;6.57;;;2.30;;
5121;SDS011;2563;52.242;7.956;2023-04-01T23:29:53;5.07;;;2.20;;
5121;SDS011;2563;52.242;7.956;2023-04-01T23:32:18;4.60;;;1.60;;
5121;SDS011;2563;52.242;7.956;2023-04-01T23:34:56;6.43;;;2.37;;
5121;SDS011;2563;52.242;7.956;2023-04-01T23:37:24;5.10;;;2.03;;
5121;SDS011;2563;52.242;7.956;2023-04-01T23:39:52;8.90;;;2.40;;
5121;SDS011;2563;52.242;7.956;2023-04-01T23:44:56;7.40;;;2.50;;
5121;SDS011;2563;52.242;7.956;2023-04-01T23:47:31;6.50;;;3.07;;
5121;SDS011;2563;52.242;7.956;2023-04-01T23:50:12;7.23;;;2.87;;
5121;SDS011;2563;52.242;7.956;2023-04-01T23:52:57;7.07;;;2.57;;
5121;SDS011;2563;52.242;7.956;2023-04-01T23:55:26;6.63;;;2.43;;
